Terminal Aerodrome Forecast
Issued by NWS Tampa Bay Area, FL

Home | Current Version | Previous Version | Text Only | Print | Product List | Glossary On
Versions: 1 2 3 4 5 6 7 8 9 10 11 12 13 14
863
FTUS42 KTBW 302341
TAFSRQ
TAF
KSRQ 302341Z 0100/0124 20010KT P6SM VCSH SCT070 SCT250
     FM010200 12010KT P6SM FEW040 SCT250
     FM011300 16013KT P6SM SCT040 BKN120
     FM011700 20014KT P6SM SCT050 BKN250=

USA.gov is the U.S. government's official web portal to all federal, state and local government web resources and services.